Terminal Aerodrome Forecast
Issued by NWS

Home | Current Version | Previous Version | Text Only | Print | Product List | Glossary On
Versions: 1 2 3 4 5 6 7 8 9 10 11 12 13 14 15 16
000
FTUS44 KTSA 232336
TAFXNA
TAF
KXNA 232336Z 2400/2424 16013G21KT P6SM SKC
     FM240900 18013G21KT P6SM SCT250
     FM241400 18015G24KT P6SM BKN050
      TEMPO 2417/2420 3SM TSRA OVC025CB=

USA.gov is the U.S. government's official web portal to all federal, state and local government web resources and services.